Time;durP1;ratioP1;P1;durP2;ratioP2;P2;SDS_P1;SDS_P2;PMS_P1;PMS_P2;Temp;Humidity;BMP_temperature;BMP_pressure;BME280_temperature;BME280_humidity;BME280_pressure;Samples;Min_cycle;Max_cycle;Signal;HPM_P1;HPM_P2
2021/12/15 00:01:15;;;;;;;63.50;39.95;;;;;;;8.25;98.26;102805.97;5052695;28;20104;-80
2021/12/15 00:03:41;;;;;;;66.93;40.97;;;;;;;8.30;98.14;102828.84;5068870;28;20111;-78
2021/12/15 00:06:16;;;;;;;67.53;41.47;;;;;;;8.06;98.39;102786.94;5072180;28;20052;-77
2021/12/15 00:08:44;;;;;;;64.75;40.65;;;;;;;8.30;98.18;102827.97;5062812;28;20044;-82
2021/12/15 00:11:10;;;;;;;73.40;42.35;;;;;;;8.23;98.01;102813.97;5067527;28;20064;-80
2021/12/15 00:13:37;;;;;;;64.90;40.97;;;;;;;8.31;97.65;102822.63;5068943;28;20111;-77
2021/12/15 00:16:04;;;;;;;64.07;40.58;;;;;;;8.21;98.47;102813.13;5072249;28;20044;-77
2021/12/15 00:18:30;;;;;;;70.20;42.72;;;;;;;8.10;98.38;102789.50;5070240;28;20089;-79
2021/12/15 00:20:55;;;;;;;65.32;40.80;;;;;;;8.24;98.49;102805.13;5063711;28;20114;-80
2021/12/15 00:23:21;;;;;;;64.28;40.88;;;;;;;8.18;98.71;102805.25;5069886;28;20020;-79
2021/12/15 00:25:46;;;;;;;69.70;40.97;;;;;;;8.18;98.51;102802.59;5072808;28;20029;-78
2021/12/15 00:28:12;;;;;;;72.38;42.83;;;;;;;8.25;98.76;102809.50;5068090;28;20037;-81
2021/12/15 00:30:38;;;;;;;69.43;41.33;;;;;;;8.11;98.68;102783.28;5038223;28;20464;-80
2021/12/15 00:33:06;;;;;;;68.35;41.08;;;;;;;8.27;98.99;102810.34;5058312;28;20078;-78
2021/12/15 00:35:32;;;;;;;67.85;41.42;;;;;;;8.28;98.70;102814.75;5058873;28;20364;-79
2021/12/15 00:37:57;;;;;;;65.97;40.75;;;;;;;8.14;98.66;102791.16;5067800;28;20040;-79
2021/12/15 00:40:41;;;;;;;70.25;41.88;;;;;;;8.23;98.62;102806.00;5057047;28;20472;-81
2021/12/15 00:43:08;;;;;;;65.43;41.30;;;;;;;8.14;98.63;102790.31;5067237;28;20449;-79
2021/12/15 00:45:35;;;;;;;63.25;39.35;;;;;;;8.25;98.33;102801.56;5063689;28;20064;-80
2021/12/15 00:48:01;;;;;;;62.08;38.45;;;;;;;8.14;98.23;102777.91;5061823;28;20037;-80
2021/12/15 00:50:32;;;;;;;67.85;41.42;;;;;;;8.18;98.75;102797.31;5057092;28;20060;-80
2021/12/15 00:52:57;;;;;;;62.67;39.28;;;;;;;8.15;98.16;102779.69;5073282;28;20100;-80
2021/12/15 00:55:25;;;;;;;66.57;39.72;;;;;;;8.33;97.84;102806.69;5073767;28;20036;-79
2021/12/15 00:57:51;;;;;;;62.88;39.88;;;;;;;8.26;97.92;102789.16;5074960;28;20035;-80
2021/12/15 01:00:21;;;;;;;64.35;40.25;;;;;;;8.27;98.31;102799.75;5075698;28;20028;-79
2021/12/15 01:02:47;;;;;;;67.78;40.65;;;;;;;8.14;98.44;102777.06;5070550;28;20513;-79
2021/12/15 01:05:15;;;;;;;63.30;39.20;;;;;;;8.14;98.63;102777.91;5052758;28;20036;-80
2021/12/15 01:07:41;;;;;;;60.67;39.15;;;;;;;8.16;97.98;102775.25;5074944;28;20131;-79
2021/12/15 01:10:10;;;;;;;67.78;41.60;;;;;;;8.32;98.06;102805.78;5074985;28;20028;-80
2021/12/15 01:20:57;;;;;;;62.60;38.15;;;;;;;8.26;98.24;102813.88;5049379;28;20040;-81
2021/12/15 01:23:26;;;;;;;63.53;38.28;;;;;;;8.16;98.36;102796.47;5041460;28;20051;-78
2021/12/15 01:25:56;;;;;;;66.50;39.90;;;;;;;8.30;98.28;102820.03;5041333;28;20114;-78
2021/12/15 01:28:22;;;;;;;;;;;;;;;8.36;97.89;102820.75;5039545;28;20025;-78
2021/12/15 01:30:48;;;;;;;64.32;38.72;;;;;;;8.20;98.16;102796.34;5052920;28;20272;-77
2021/12/15 01:33:15;;;;;;;66.03;39.17;;;;;;;8.30;97.98;102809.41;5051661;28;20039;-79
2021/12/15 01:35:45;;;;;;;67.63;39.60;;;;;;;8.27;98.22;102814.78;5060294;28;20110;-82
2021/12/15 01:38:10;;;;;;;66.22;38.65;;;;;;;8.11;98.07;102785.06;5052484;28;20033;-78
2021/12/15 01:40:39;;;;;;;65.95;39.53;;;;;;;8.23;98.39;102803.34;5050602;28;20435;-78
2021/12/15 01:43:13;;;;;;;64.57;37.67;;;;;;;8.19;98.35;102797.25;5045415;28;20033;-78
2021/12/15 01:48:23;;;;;;;63.78;39.95;;;;;;;8.21;98.09;102813.13;5046875;28;20095;-81
2021/12/15 01:50:50;;;;;;;68.32;39.83;;;;;;;8.27;98.17;102828.03;5037169;28;20033;-80
2021/12/15 01:53:16;;;;;;;68.65;39.38;;;;;;;8.28;98.33;102824.47;5083627;28;20051;-79
2021/12/15 01:55:42;;;;;;;66.30;38.92;;;;;;;8.32;98.01;102820.84;5093187;28;20032;-80
2021/12/15 01:58:07;;;;;;;68.53;41.03;;;;;;;8.33;97.90;102823.47;5086395;28;20103;-79
2021/12/15 02:00:52;;;;;;;66.00;39.75;;;;;;;8.24;98.27;102817.50;5079340;28;20471;-78
2021/12/15 02:03:18;;;;;;;70.30;40.65;;;;;;;8.28;98.19;102832.44;5082393;28;20040;-80
2021/12/15 02:05:44;;;;;;;71.07;41.53;;;;;;;8.18;98.08;102805.25;5079178;28;20521;-81
2021/12/15 02:08:12;;;;;;;75.63;41.70;;;;;;;8.14;98.16;102814.16;5080014;28;20032;-79
2021/12/15 02:10:40;;;;;;;68.78;41.10;;;;;;;8.20;98.77;102821.97;5083512;28;20016;-79
2021/12/15 02:13:09;;;;;;;73.63;40.05;;;;;;;8.23;98.25;102835.16;5114998;28;20428;-79
2021/12/15 02:15:38;;;;;;;67.85;39.95;;;;;;;8.31;98.22;102837.66;5099577;28;20028;-78
2021/12/15 02:18:11;;;;;;;75.43;42.10;;;;;;;8.21;98.22;102826.41;5080407;28;20367;-78
2021/12/15 02:20:40;;;;;;;70.63;40.47;;;;;;;8.11;98.25;102815.09;5086954;28;20111;-80
2021/12/15 02:23:10;;;;;;;73.63;42.70;;;;;;;8.34;97.27;102840.25;5083978;28;20020;-80
2021/12/15 02:25:36;;;;;;;76.53;41.40;;;;;;;8.14;98.31;102819.47;5094183;28;20055;-78
2021/12/15 02:28:03;;;;;;;75.57;41.35;;;;;;;8.29;98.19;102842.97;5086525;28;20397;-81
2021/12/15 02:30:48;;;;;;;69.15;40.03;;;;;;;8.32;97.71;102842.91;5094013;28;20028;-80
2021/12/15 02:38:37;;;;;;;72.57;41.53;;;;;;;8.21;98.37;102831.69;5082683;28;20078;-79
2021/12/15 02:41:09;;;;;;;71.50;39.15;;;;;;;8.24;97.62;102822.81;5082316;28;20039;-78
2021/12/15 02:43:35;;;;;;;72.43;41.50;;;;;;;8.27;98.22;102830.69;5074171;28;20090;-80
2021/12/15 02:46:01;;;;;;;71.55;39.88;;;;;;;8.32;98.23;102836.75;5091349;28;20037;-79
2021/12/15 02:48:26;;;;;;;73.93;40.03;;;;;;;8.18;98.33;102822.03;5087815;28;20386;-79
2021/12/15 02:50:52;;;;;;;70.82;39.22;;;;;;;8.31;98.18;102842.97;5094928;28;20030;-78
2021/12/15 02:53:18;;;;;;;72.03;40.45;;;;;;;8.31;98.30;102838.53;5073357;28;20082;-79
2021/12/15 02:55:44;;;;;;;68.75;40.00;;;;;;;8.33;98.46;102843.81;5074148;28;20039;-79
2021/12/15 02:58:10;;;;;;;72.40;40.38;;;;;;;8.22;98.08;102822.81;5085914;28;20217;-78
2021/12/15 03:01:00;;;;;;;73.28;40.50;;;;;;;8.22;97.91;102816.66;5084210;28;20016;-79
2021/12/15 03:05:56;;;;;;;65.10;37.58;;;;;;;8.32;98.34;102834.97;5093528;28;20043;-78
2021/12/15 03:08:29;;;;;;;71.75;40.75;;;;;;;8.22;97.98;102817.53;5092609;28;20032;-76
2021/12/15 03:16:24;;;;;;;72.72;39.10;;;;;;;8.20;97.90;102814.88;5059107;28;20043;-80
2021/12/15 03:18:50;;;;;;;72.93;39.53;;;;;;;8.30;98.54;102833.28;5056220;28;20020;-79
2021/12/15 03:21:21;;;;;;;68.05;39.42;;;;;;;8.28;98.43;102829.78;5060132;28;20032;-78
2021/12/15 03:23:54;;;;;;;73.43;40.40;;;;;;;8.31;98.13;102819.97;5053098;28;20021;-79
2021/12/15 03:26:26;;;;;;;70.30;39.88;;;;;;;8.18;98.40;102803.47;5071588;28;20094;-77
2021/12/15 03:34:40;;;;;;;74.13;38.70;;;;;;;8.26;98.21;102818.31;5053744;28;20507;-78
2021/12/15 03:37:23;;;;;;;66.57;37.88;;;;;;;8.20;98.42;102814.03;5071290;28;20044;-81
2021/12/15 03:40:01;;;;;;;65.82;37.00;;;;;;;8.37;97.98;102830.44;5044179;28;20075;-80
2021/12/15 03:42:34;;;;;;;62.28;35.78;;;;;;;8.36;98.32;102838.44;5054973;28;20051;-80
2021/12/15 03:45:02;;;;;;;65.95;36.30;;;;;;;8.32;98.44;102831.44;5052767;28;20029;-79
2021/12/15 03:47:35;;;;;;;68.20;37.05;;;;;;;8.23;98.37;102821.91;5070886;28;20100;-80
2021/12/15 03:50:05;;;;;;;72.47;37.15;;;;;;;8.32;98.70;102842.91;5070813;28;20119;-79
2021/12/15 03:52:31;;;;;;;62.42;35.28;;;;;;;8.31;98.39;102840.31;5058764;28;20024;-77
2021/12/15 03:55:06;;;;;;;62.92;35.67;;;;;;;8.29;98.67;102831.50;5086486;28;20119;-81
2021/12/15 03:57:32;;;;;;;59.72;34.55;;;;;;;8.23;98.51;102827.22;5062492;28;20039;-79
2021/12/15 03:59:58;;;;;;;62.40;35.33;;;;;;;8.31;98.44;102843.84;5052698;28;20025;-82
2021/12/15 04:02:25;;;;;;;61.47;35.28;;;;;;;8.33;98.64;102839.38;5044271;28;20053;-79
2021/12/15 04:04:51;;;;;;;66.57;37.40;;;;;;;8.36;98.56;102849.06;5069775;28;20040;-81
2021/12/15 04:07:18;;;;;;;58.15;34.75;;;;;;;8.18;98.25;102826.47;5057612;28;20136;-79
2021/12/15 04:09:46;;;;;;;59.38;33.72;;;;;;;8.23;98.44;102829.00;5038109;28;20041;-80
2021/12/15 04:12:13;;;;;;;60.53;34.20;;;;;;;8.35;98.47;102852.59;5057414;28;20069;-79
2021/12/15 04:14:54;;;;;;;59.35;35.33;;;;;;;8.14;98.67;102815.03;5057833;28;20032;-79
2021/12/15 04:17:29;;;;;;;58.55;35.00;;;;;;;8.13;98.27;102820.38;5039389;28;20021;-78
2021/12/15 04:19:59;;;;;;;58.80;33.88;;;;;;;8.37;98.58;102851.66;5070754;28;20036;-80
2021/12/15 04:22:25;;;;;;;60.25;35.63;;;;;;;8.40;98.43;102853.41;5074728;28;20482;-79
2021/12/15 04:24:52;;;;;;;58.60;35.05;;;;;;;8.24;98.16;102828.09;5060725;28;20052;-79
2021/12/15 04:27:20;;;;;;;58.03;32.80;;;;;;;8.38;98.37;102855.16;5058907;28;20047;-80
2021/12/15 04:29:47;;;;;;;59.08;34.65;;;;;;;8.38;98.33;102857.81;5057885;28;20037;-78
2021/12/15 04:32:20;;;;;;;58.05;33.42;;;;;;;8.38;98.31;102856.09;5074525;28;20024;-77
2021/12/15 04:34:46;;;;;;;56.10;33.25;;;;;;;8.41;98.27;102866.63;5074363;28;20020;-78
2021/12/15 04:37:11;;;;;;;59.67;34.67;;;;;;;8.41;98.40;102868.41;5057018;28;20035;-83
2021/12/15 04:39:37;;;;;;;58.58;34.30;;;;;;;8.26;98.33;102843.03;5055730;28;20098;-80
2021/12/15 04:42:04;;;;;;;56.92;33.88;;;;;;;8.29;98.32;102850.06;5062971;28;20043;-80
2021/12/15 04:44:31;;;;;;;54.20;33.30;;;;;;;8.39;98.02;102862.28;5058488;28;20017;-78
2021/12/15 04:47:03;;;;;;;54.88;33.70;;;;;;;8.40;98.01;102866.66;5064667;28;20430;-80
2021/12/15 04:49:37;;;;;;;58.75;32.22;;;;;;;8.28;98.42;102845.69;5055832;28;20031;-77
2021/12/15 04:52:04;;;;;;;59.97;34.35;;;;;;;8.37;97.78;102872.84;5072971;28;20032;-80
2021/12/15 04:54:30;;;;;;;56.92;32.58;;;;;;;8.28;98.18;102856.28;5075687;28;20020;-82
2021/12/15 04:56:56;;;;;;;59.75;32.72;;;;;;;8.33;98.21;102872.97;5071300;28;20081;-79
2021/12/15 04:59:22;;;;;;;53.25;31.10;;;;;;;8.38;98.04;102882.63;5048496;28;20431;-79
2021/12/15 05:01:48;;;;;;;53.58;31.60;;;;;;;8.27;98.11;102860.72;5058587;28;20025;-79
2021/12/15 05:04:14;;;;;;;53.25;32.45;;;;;;;8.37;98.02;102880.81;5055740;28;20024;-80
2021/12/15 05:06:40;;;;;;;54.15;32.30;;;;;;;8.29;98.01;102868.63;5070308;28;20047;-82
2021/12/15 05:09:06;;;;;;;56.00;31.55;;;;;;;8.30;98.00;102865.97;5065386;28;20025;-82
2021/12/15 05:11:32;;;;;;;60.50;32.40;;;;;;;8.38;98.20;102881.69;5076972;28;20044;-79
2021/12/15 05:13:57;;;;;;;54.65;32.53;;;;;;;8.27;98.03;102865.16;5094755;28;20493;-82
2021/12/15 05:16:22;;;;;;;56.42;31.38;;;;;;;8.37;97.98;102882.59;5092728;28;20020;-77
2021/12/15 05:18:49;;;;;;;55.55;31.42;;;;;;;8.35;97.91;102873.78;5091727;28;20032;-79
2021/12/15 05:21:15;;;;;;;54.28;32.67;;;;;;;8.34;97.96;102880.88;5082565;28;20095;-80
2021/12/15 05:23:47;;;;;;;55.85;31.35;;;;;;;8.37;98.01;102888.78;5073900;28;20108;-80
2021/12/15 05:26:12;;;;;;;53.13;31.65;;;;;;;8.30;97.88;102881.88;5073780;28;20115;-79
2021/12/15 05:28:38;;;;;;;52.85;31.90;;;;;;;8.21;98.31;102863.50;5083883;28;20104;-80
2021/12/15 05:31:04;;;;;;;52.10;30.60;;;;;;;8.27;98.36;102875.75;5088347;28;20119;-80
2021/12/15 05:33:29;;;;;;;55.83;30.95;;;;;;;8.30;97.94;102887.16;5095500;28;20079;-77
2021/12/15 05:35:56;;;;;;;55.53;31.08;;;;;;;8.27;98.24;102875.75;5092926;28;20503;-80
2021/12/15 05:38:23;;;;;;;57.08;31.77;;;;;;;8.36;98.40;102894.13;5094632;28;20043;-78
2021/12/15 05:40:49;;;;;;;58.15;32.95;;;;;;;8.35;98.11;102892.34;5084572;28;20023;-78
2021/12/15 05:43:15;;;;;;;56.97;31.85;;;;;;;8.30;97.87;102886.28;5085501;28;20036;-78
2021/12/15 05:45:42;;;;;;;56.40;32.00;;;;;;;8.31;97.73;102885.38;5076568;28;20020;-78
2021/12/15 05:48:11;;;;;;;56.70;31.20;;;;;;;8.38;98.40;102900.25;5087987;28;20032;-79
2021/12/15 05:50:37;;;;;;;57.67;31.83;;;;;;;8.26;98.34;102876.63;5090065;28;20135;-79
2021/12/15 05:53:03;;;;;;;57.30;31.90;;;;;;;8.24;98.17;102871.38;5094983;28;20027;-79
2021/12/15 05:55:29;;;;;;;56.97;31.40;;;;;;;8.28;98.27;102883.66;5092880;28;20386;-78
2021/12/15 05:57:55;;;;;;;58.70;34.35;;;;;;;8.22;98.46;102867.03;5087559;28;20028;-79
2021/12/15 06:00:29;;;;;;;56.67;32.28;;;;;;;8.38;98.26;102897.59;5093039;28;20012;-80
2021/12/15 06:02:56;;;;;;;55.28;33.13;;;;;;;8.37;98.56;102898.50;5086820;28;20020;-79
2021/12/15 06:05:23;;;;;;;61.78;33.10;;;;;;;8.38;98.12;102898.53;5092111;28;20097;-78
2021/12/15 06:07:49;;;;;;;61.80;33.45;;;;;;;8.32;97.76;102889.75;5119033;27;20077;-80
2021/12/15 06:10:19;;;;;;;62.22;33.63;;;;;;;8.35;98.35;102901.22;5103309;28;20031;-78
2021/12/15 06:12:47;;;;;;;59.60;34.25;;;;;;;8.35;98.50;102887.94;5075987;28;20048;-81
2021/12/15 06:15:14;;;;;;;62.35;33.60;;;;;;;8.41;97.71;102903.75;5076009;28;20033;-78
2021/12/15 06:17:39;;;;;;;67.15;34.13;;;;;;;8.25;98.46;102877.56;5089851;28;20767;-79
2021/12/15 06:20:06;;;;;;;68.55;35.25;;;;;;;8.28;98.57;102888.09;5098738;28;20027;-79
2021/12/15 06:22:33;;;;;;;62.05;33.88;;;;;;;8.23;98.33;102880.22;5097451;28;20035;-78
2021/12/15 06:24:58;;;;;;;66.38;35.75;;;;;;;8.34;98.34;102903.88;5074080;28;20547;-78
2021/12/15 06:27:24;;;;;;;66.22;35.28;;;;;;;8.34;98.80;102906.53;5083522;28;20111;-79
2021/12/15 06:29:52;;;;;;;66.45;36.15;;;;;;;8.22;98.69;102897.03;5089811;28;20032;-80
2021/12/15 06:32:19;;;;;;;65.65;35.05;;;;;;;8.17;98.66;102891.81;5080752;28;20024;-80
2021/12/15 06:34:44;;;;;;;66.15;37.13;;;;;;;8.21;98.72;102895.31;5092813;28;20070;-80
2021/12/15 06:37:11;;;;;;;63.97;35.92;;;;;;;8.12;98.63;102884.91;5075479;28;20064;-79
2021/12/15 06:39:36;;;;;;;67.78;35.97;;;;;;;8.23;99.02;102901.44;5094578;28;20019;-78
2021/12/15 06:42:20;;;;;;;67.00;35.72;;;;;;;8.27;98.74;102895.19;5111557;28;20426;-79
2021/12/15 06:44:46;;;;;;;67.68;36.15;;;;;;;8.35;98.89;102921.53;5074254;28;20475;-80
2021/12/15 06:47:47;;;;;;;71.50;36.40;;;;;;;8.29;98.55;102908.38;5072673;28;20041;-82
2021/12/15 06:58:23;;;;;;;72.68;37.67;;;;;;;8.39;98.97;102921.47;5090646;28;20089;-81
2021/12/15 07:00:53;;;;;;;75.20;39.30;;;;;;;8.39;98.65;102929.44;5093804;28;20115;-82
2021/12/15 07:03:20;;;;;;;66.72;37.17;;;;;;;8.38;98.73;102930.34;5084703;28;20035;-80
2021/12/15 07:05:46;;;;;;;69.07;37.20;;;;;;;8.41;98.61;102922.31;5091516;28;20031;-80
2021/12/15 07:08:12;;;;;;;69.32;36.30;;;;;;;8.35;98.82;102922.41;5076268;28;20437;-79
2021/12/15 07:10:42;;;;;;;73.55;36.17;;;;;;;8.39;98.90;102941.81;5093559;28;20035;-81
2021/12/15 07:13:10;;;;;;;75.05;36.95;;;;;;;8.36;99.08;102942.72;5091449;28;20117;-79
2021/12/15 07:15:37;;;;;;;70.57;37.35;;;;;;;8.39;99.11;102942.69;5063858;28;20446;-79
2021/12/15 07:18:06;;;;;;;72.25;39.45;;;;;;;8.38;99.10;102942.66;5074374;28;20095;-81
2021/12/15 07:20:47;;;;;;;72.03;37.55;;;;;;;8.33;98.82;102928.66;5092625;28;20409;-79
2021/12/15 07:23:19;;;;;;;74.85;37.88;;;;;;;8.47;98.53;102944.28;5092852;28;20032;-79
2021/12/15 07:25:47;;;;;;;70.47;36.80;;;;;;;8.42;99.08;102941.75;5091059;28;20506;-79
2021/12/15 07:28:15;;;;;;;77.25;39.10;;;;;;;8.40;99.12;102952.38;5082988;28;20031;-78
2021/12/15 07:30:41;;;;;;;74.22;38.47;;;;;;;8.27;98.70;102919.03;5072677;28;20031;-79
2021/12/15 07:33:09;;;;;;;74.85;38.22;;;;;;;8.40;99.25;102954.16;5075644;28;20045;-80
2021/12/15 07:35:36;;;;;;;78.13;39.15;;;;;;;8.27;99.40;102934.09;5083014;28;20027;-80
2021/12/15 07:38:02;;;;;;;74.47;36.15;;;;;;;8.30;99.13;102937.53;5077235;28;20483;-81
2021/12/15 07:40:28;;;;;;;79.07;38.78;;;;;;;8.31;99.01;102938.41;5083064;28;20012;-78
2021/12/15 07:43:08;;;;;;;78.60;40.08;;;;;;;8.31;99.37;102935.75;5093148;28;20032;-79
2021/12/15 07:45:46;;;;;;;73.72;37.65;;;;;;;8.44;98.94;102952.31;5084911;28;20039;-79
2021/12/15 07:48:14;;;;;;;83.40;40.30;;;;;;;8.33;99.13;102937.47;5112192;27;20483;-80
2021/12/15 07:50:42;;;;;;;80.95;39.13;;;;;;;8.28;98.59;102926.06;5084281;28;20062;-80
2021/12/15 07:53:07;;;;;;;78.40;39.22;;;;;;;8.38;98.72;102945.31;5072715;28;20425;-81
2021/12/15 07:55:34;;;;;;;86.70;41.03;;;;;;;8.29;99.28;102948.16;5080349;28;20027;-81
2021/12/15 07:58:02;;;;;;;79.63;39.72;;;;;;;8.41;99.29;102956.78;5087406;28;20032;-80
2021/12/15 08:00:27;;;;;;;82.35;41.13;;;;;;;8.40;99.32;102964.75;5080641;28;20019;-78
2021/12/15 08:02:53;;;;;;;81.28;39.97;;;;;;;8.30;99.25;102944.63;5080957;28;20099;-82
2021/12/15 08:05:19;;;;;;;85.35;42.97;;;;;;;8.44;99.53;102973.53;5069501;28;20510;-79
2021/12/15 08:07:44;;;;;;;81.50;42.03;;;;;;;8.28;99.17;102938.47;5084556;28;20691;-81
2021/12/15 08:10:11;;;;;;;84.25;43.05;;;;;;;8.30;99.73;102945.50;5077802;28;20033;-80
2021/12/15 08:12:39;;;;;;;77.53;40.28;;;;;;;8.44;99.47;102973.53;5085393;28;20516;-80
2021/12/15 08:15:07;;;;;;;75.60;40.42;;;;;;;8.48;98.91;102973.44;5085310;28;20383;-80
2021/12/15 08:17:33;;;;;;;82.70;41.58;;;;;;;8.32;99.37;102948.09;5089537;28;20020;-82
2021/12/15 08:19:59;;;;;;;82.57;41.85;;;;;;;8.46;99.49;102982.34;5075668;28;20031;-80
2021/12/15 08:22:24;;;;;;;78.15;42.17;;;;;;;8.33;99.55;102956.03;5090377;28;20028;-79
2021/12/15 08:24:49;;;;;;;80.90;41.63;;;;;;;8.36;99.17;102957.75;5092471;28;20443;-78
2021/12/15 08:27:15;;;;;;;82.15;41.90;;;;;;;8.45;99.34;102972.63;5086930;28;20029;-80
2021/12/15 08:29:41;;;;;;;81.43;42.70;;;;;;;8.31;99.32;102959.63;5085818;28;20161;-82
2021/12/15 08:32:06;;;;;;;79.80;41.20;;;;;;;8.45;99.35;102976.16;5091386;28;20085;-80
2021/12/15 08:34:32;;;;;;;79.88;41.25;;;;;;;8.30;99.54;102953.44;5092059;28;20026;-79
2021/12/15 08:36:57;;;;;;;83.03;42.72;;;;;;;8.41;99.17;102971.81;5092530;28;20482;-81
2021/12/15 08:39:23;;;;;;;79.03;43.20;;;;;;;8.48;99.24;102986.72;5091119;28;20053;-81
2021/12/15 08:41:48;;;;;;;81.32;43.20;;;;;;;8.41;99.17;102961.19;5072368;28;20024;-82
2021/12/15 08:44:14;;;;;;;81.88;43.47;;;;;;;8.36;99.19;102960.41;5072119;28;20353;-79
2021/12/15 08:46:44;;;;;;;83.75;44.28;;;;;;;8.53;98.64;102984.84;5072429;28;20116;-81
2021/12/15 08:49:13;;;;;;;83.53;42.30;;;;;;;8.44;99.09;102953.19;5076063;28;20032;-80
2021/12/15 08:51:39;;;;;;;85.07;42.08;;;;;;;8.33;99.17;102948.06;5077383;28;20040;-82
2021/12/15 08:54:11;;;;;;;82.10;41.35;;;;;;;8.56;98.81;102987.44;5088298;28;20078;-82
2021/12/15 08:56:37;;;;;;;79.55;41.83;;;;;;;8.54;99.00;102991.03;5096051;28;20027;-82
2021/12/15 08:59:04;;;;;;;82.50;41.60;;;;;;;8.55;98.97;102984.78;5086226;28;20471;-80
2021/12/15 09:01:30;;;;;;;75.85;42.10;;;;;;;8.54;98.99;102989.22;5093935;28;20028;-79
2021/12/15 09:03:56;;;;;;;82.05;42.38;;;;;;;8.57;98.82;102988.31;5095917;28;20024;-81
2021/12/15 09:06:23;;;;;;;80.15;42.38;;;;;;;8.49;98.94;102982.28;5095377;28;20045;-80
2021/12/15 09:08:49;;;;;;;81.30;43.47;;;;;;;8.56;98.95;102990.09;5095516;28;20054;-81
2021/12/15 09:11:17;;;;;;;79.18;42.22;;;;;;;8.59;98.95;102999.75;5077392;28;20494;-80
2021/12/15 09:13:44;;;;;;;75.20;42.03;;;;;;;8.61;98.85;102993.50;5078066;28;20036;-81
2021/12/15 09:16:12;;;;;;;79.55;42.33;;;;;;;8.61;99.15;103000.59;5095784;28;20027;-80
2021/12/15 09:18:40;;;;;;;75.32;41.10;;;;;;;8.69;98.15;102998.66;5081966;28;20029;-80
2021/12/15 09:21:07;;;;;;;76.47;41.83;;;;;;;8.53;99.03;102984.84;5074223;28;20024;-83
2021/12/15 09:23:33;;;;;;;81.28;43.90;;;;;;;8.43;98.80;102961.19;5086977;28;20551;-82
2021/12/15 09:25:59;;;;;;;78.80;42.40;;;;;;;8.70;99.05;103005.69;5095626;28;20062;-82
2021/12/15 09:28:25;;;;;;;76.07;42.95;;;;;;;8.45;98.38;102960.25;5075485;28;20024;-80
2021/12/15 09:30:52;;;;;;;77.43;42.35;;;;;;;8.72;99.02;103014.50;5086997;28;20028;-79
2021/12/15 09:33:22;;;;;;;72.53;41.08;;;;;;;8.56;98.43;102997.13;5083234;28;20028;-80
2021/12/15 09:35:48;;;;;;;;;;;;;;;8.85;98.63;103025.72;5095425;28;20514;-80
2021/12/15 09:38:16;;;;;;;74.78;40.65;;;;;;;8.79;97.95;103016.13;5094357;28;20006;-80
2021/12/15 09:40:43;;;;;;;77.13;42.83;;;;;;;8.69;98.51;103013.72;5095962;28;20036;-81
2021/12/15 09:43:10;;;;;;;74.63;41.83;;;;;;;8.62;98.79;102995.25;5097210;28;20044;-80
2021/12/15 10:04:50;;;;;;;77.60;43.83;;;;;;;8.77;97.48;102985.25;5089389;28;20402;-80
2021/12/15 10:18:32;;;;;;;71.00;43.58;;;;;;;9.08;97.93;103025.25;5074456;28;20046;-80
2021/12/15 10:20:58;;;;;;;71.25;42.97;;;;;;;9.12;98.16;103024.28;5073992;28;20025;-80
2021/12/15 10:23:30;;;;;;;71.95;42.05;;;;;;;9.18;97.42;103028.59;5074312;28;20020;-80
2021/12/15 10:25:57;;;;;;;71.75;43.33;;;;;;;9.17;97.78;103029.50;5074841;28;20024;-79
2021/12/15 10:28:29;;;;;;;72.85;41.42;;;;;;;9.20;96.97;103019.66;5086551;28;20043;-80
2021/12/15 10:31:02;;;;;;;73.30;43.20;;;;;;;9.21;97.65;103031.19;5075789;28;20028;-80
2021/12/15 10:33:37;;;;;;;66.70;42.03;;;;;;;9.20;97.14;103030.28;5062772;28;20471;-79
2021/12/15 10:36:10;;;;;;;70.95;44.05;;;;;;;9.27;96.88;103031.91;5076626;28;20055;-79
2021/12/15 10:38:48;;;;;;;70.55;43.65;;;;;;;9.19;97.27;103017.06;5073303;28;20044;-80
2021/12/15 10:41:34;;;;;;;72.95;44.50;;;;;;;9.27;96.95;103025.75;5084034;28;20027;-80
2021/12/15 10:44:03;;;;;;;74.90;45.88;;;;;;;9.22;96.52;103009.03;5093641;28;20036;-79
2021/12/15 10:46:35;;;;;;;69.88;43.00;;;;;;;9.23;96.79;103019.59;5081019;28;20077;-80
2021/12/15 10:49:10;;;;;;;72.55;43.20;;;;;;;9.28;96.77;103025.69;5073343;28;20028;-79
2021/12/15 10:51:47;;;;;;;69.85;43.92;;;;;;;9.25;97.38;103023.09;5076900;28;20024;-79
2021/12/15 10:54:14;;;;;;;72.35;42.65;;;;;;;9.35;96.27;103038.81;5092379;28;20051;-80
2021/12/15 10:56:49;;;;;;;73.22;45.22;;;;;;;9.28;96.88;103033.66;5093201;28;20074;-81
2021/12/15 10:59:16;;;;;;;73.60;46.20;;;;;;;9.26;97.25;103030.16;5107984;28;20378;-80
2021/12/15 11:01:51;;;;;;;70.88;44.05;;;;;;;9.21;97.30;103013.47;5091476;27;20567;-79
2021/12/15 11:04:34;;;;;;;70.18;43.60;;;;;;;9.17;97.11;103002.94;5085220;28;20035;-83
2021/12/15 11:07:18;;;;;;;73.38;45.03;;;;;;;9.37;97.05;103034.34;5082246;28;20040;-78
2021/12/15 11:10:01;;;;;;;74.85;45.05;;;;;;;9.38;96.72;103030.78;5079952;28;20056;-78
2021/12/15 11:12:37;;;;;;;71.05;44.83;;;;;;;9.43;96.44;103029.78;5085461;28;20425;-82
2021/12/15 11:15:16;;;;;;;70.53;44.95;;;;;;;9.35;96.50;103022.88;5087092;28;20162;-83
2021/12/15 11:17:44;;;;;;;67.75;43.47;;;;;;;9.42;96.40;103032.47;5088191;28;20402;-81
2021/12/15 11:20:10;;;;;;;68.45;45.85;;;;;;;9.42;96.55;103024.50;5090915;28;20020;-80
2021/12/15 11:22:47;;;;;;;70.53;42.40;;;;;;;9.45;96.13;103017.34;5090418;28;20028;-80
2021/12/15 11:25:18;;;;;;;71.80;44.45;;;;;;;9.50;95.49;103020.78;5087032;28;20025;-78
2021/12/15 11:27:51;;;;;;;67.13;42.70;;;;;;;9.50;95.99;103026.09;5079293;28;20547;-80
2021/12/15 11:30:23;;;;;;;64.82;43.83;;;;;;;9.42;94.94;102992.63;5072258;28;20066;-77
2021/12/15 11:32:51;;;;;;;69.15;44.85;;;;;;;9.52;95.28;103023.38;5085723;28;20024;-79
2021/12/15 11:35:18;;;;;;;66.10;43.53;;;;;;;9.49;95.54;103018.13;5079959;28;20023;-79
2021/12/15 11:37:52;;;;;;;64.07;42.83;;;;;;;9.50;95.67;103012.81;5082260;28;20111;-83
2021/12/15 11:40:27;;;;;;;70.63;43.38;;;;;;;9.53;95.33;103023.34;5097346;28;20015;-79
2021/12/15 11:42:52;;;;;;;67.07;41.80;;;;;;;9.45;95.53;103003.19;5090245;28;20023;-78
2021/12/15 11:45:19;;;;;;;68.50;42.78;;;;;;;9.57;95.37;103016.19;5086520;28;20078;-79
2021/12/15 11:47:44;;;;;;;63.60;41.67;;;;;;;9.61;94.41;103011.66;5086469;28;20122;-80
2021/12/15 11:50:17;;;;;;;59.13;39.90;;;;;;;9.63;94.54;103012.50;5094818;28;20102;-82
2021/12/15 11:52:49;;;;;;;64.70;41.22;;;;;;;9.58;94.95;103015.25;5075998;28;20029;-78
2021/12/15 11:55:30;;;;;;;62.05;41.70;;;;;;;9.49;94.89;102995.09;5081421;28;20103;-82
2021/12/15 11:57:57;;;;;;;61.92;41.17;;;;;;;9.55;94.69;103010.88;5090271;28;20425;-79
2021/12/15 12:00:27;;;;;;;59.85;39.80;;;;;;;9.58;94.14;103001.97;5088951;28;20012;-81
2021/12/15 12:02:57;;;;;;;58.40;40.10;;;;;;;9.62;94.79;103013.38;5089080;28;20545;-80
2021/12/15 12:05:35;;;;;;;61.78;39.53;;;;;;;9.68;94.16;103018.59;5091951;28;20023;-80
2021/12/15 12:08:09;;;;;;;53.97;37.60;;;;;;;9.67;93.83;103016.81;5071996;28;20044;-80
2021/12/15 12:10:43;;;;;;;57.88;37.70;;;;;;;9.52;93.57;102991.50;5092747;28;20100;-79
2021/12/15 12:13:15;;;;;;;55.75;37.67;;;;;;;9.63;93.95;103008.06;5090569;28;20097;-81
2021/12/15 12:15:43;;;;;;;51.72;36.58;;;;;;;9.55;93.19;102980.78;5092670;28;20028;-79
2021/12/15 12:18:15;;;;;;;56.05;40.10;;;;;;;9.60;93.98;102992.19;5092548;28;20031;-80
2021/12/15 12:20:50;;;;;;;53.72;38.53;;;;;;;9.63;94.10;102984.16;5074540;28;20020;-80
2021/12/15 12:23:23;;;;;;;56.25;37.63;;;;;;;9.76;93.64;103000.66;5095214;28;20033;-79
2021/12/15 12:25:51;;;;;;;59.20;38.50;;;;;;;9.69;93.69;102986.66;5096443;28;20028;-79
2021/12/15 12:28:30;;;;;;;60.13;39.58;;;;;;;9.81;93.72;103003.19;5096267;28;20039;-80
2021/12/15 12:30:59;;;;;;;53.00;38.03;;;;;;;9.82;93.23;103005.81;5094766;28;20032;-79
2021/12/15 12:33:27;;;;;;;51.22;37.65;;;;;;;9.82;92.87;102999.63;5096097;28;20031;-80